Time;durP1;ratioP1;P1;durP2;ratioP2;P2;SDS_P1;SDS_P2;PMS_P1;PMS_P2;Temp;Humidity;BMP_temperature;BMP_pressure;BME280_temperature;BME280_humidity;BME280_pressure;Samples;Min_cycle;Max_cycle;Signal;HPM_P1;HPM_P2
2024/01/12 00:02:16;;;;;;;15.27;8.25;;;23.00;50.50;;;;;;5112824;28;20033;-74
2024/01/12 00:04:42;;;;;;;12.00;7.30;;;23.00;50.40;;;;;;5112645;28;20040;-75
2024/01/12 00:07:08;;;;;;;12.98;6.88;;;22.70;51.40;;;;;;5112702;28;20027;-74
2024/01/12 00:09:34;;;;;;;13.73;8.52;;;22.50;50.20;;;;;;5112959;28;20039;-74
2024/01/12 00:12:00;;;;;;;13.55;7.32;;;22.80;50.90;;;;;;5093034;28;20507;-74
2024/01/12 00:14:26;;;;;;;13.90;7.93;;;22.10;49.80;;;;;;5112468;28;20035;-74
2024/01/12 00:16:52;;;;;;;14.60;7.22;;;22.80;50.30;;;;;;5112361;28;20490;-75
2024/01/12 00:19:20;;;;;;;14.48;7.68;;;22.80;51.30;;;;;;5112548;28;20034;-74
2024/01/12 00:21:46;;;;;;;11.23;7.00;;;22.10;50.10;;;;;;5111823;28;20036;-74
2024/01/12 00:24:13;;;;;;;13.82;8.27;;;23.10;50.90;;;;;;5112363;28;20036;-74
2024/01/12 00:26:39;;;;;;;11.25;7.38;;;22.80;50.30;;;;;;5093056;28;20048;-75
2024/01/12 00:29:05;;;;;;;14.85;8.32;;;22.70;50.90;;;;;;5112411;28;20446;-75
2024/01/12 00:31:32;;;;;;;12.98;7.22;;;22.50;50.20;;;;;;5111286;28;20027;-74
2024/01/12 00:33:58;;;;;;;14.20;8.48;;;23.60;50.50;;;;;;5111966;28;20042;-74
2024/01/12 00:36:24;;;;;;;12.68;6.80;;;23.70;50.30;;;;;;5110583;28;20039;-73
2024/01/12 00:38:50;;;;;;;12.85;6.80;;;23.00;50.70;;;;;;5112243;28;20035;-74
2024/01/12 00:41:16;;;;;;;17.30;8.88;;;22.90;50.10;;;;;;5112131;28;20471;-73
2024/01/12 00:43:42;;;;;;;14.88;8.35;;;22.80;49.90;;;;;;5111958;28;20032;-74
2024/01/12 00:46:08;;;;;;;13.85;7.38;;;22.50;48.70;;;;;;5089362;28;20402;-74
2024/01/12 00:48:34;;;;;;;14.13;8.13;;;22.70;49.40;;;;;;5110526;28;20368;-74
2024/01/12 00:51:00;;;;;;;12.68;7.20;;;22.80;50.60;;;;;;5111672;28;20106;-74
2024/01/12 00:53:26;;;;;;;12.52;6.50;;;22.80;50.40;;;;;;5111687;28;20039;-75
2024/01/12 00:55:53;;;;;;;11.85;6.75;;;23.00;50.20;;;;;;5111959;28;20192;-74
2024/01/12 00:58:19;;;;;;;12.20;7.25;;;22.80;49.50;;;;;;5111589;28;20027;-75
2024/01/12 01:00:45;;;;;;;13.02;7.57;;;22.10;50.40;;;;;;5111719;28;20165;-74
2024/01/12 01:03:11;;;;;;;13.85;7.75;;;23.00;50.40;;;;;;5111689;28;20027;-75
2024/01/12 01:05:37;;;;;;;13.82;7.43;;;24.60;51.20;;;;;;5111649;28;20106;-75
2024/01/12 01:08:03;;;;;;;13.73;7.38;;;23.70;50.10;;;;;;5111825;28;20031;-74
2024/01/12 01:10:29;;;;;;;12.35;7.32;;;22.70;49.70;;;;;;5106895;28;20035;-75
2024/01/12 01:12:55;;;;;;;11.07;6.25;;;22.60;49.60;;;;;;5091199;28;20036;-71
2024/01/12 01:15:21;;;;;;;12.18;7.05;;;22.30;50.40;;;;;;5091209;28;20043;-74
2024/01/12 01:17:48;;;;;;;11.85;7.50;;;22.70;51.10;;;;;;5091224;28;20060;-75
2024/01/12 01:20:16;;;;;;;9.23;6.05;;;22.80;50.20;;;;;;5091025;28;20089;-74
2024/01/12 01:22:42;;;;;;;14.20;8.25;;;22.40;49.90;;;;;;5091443;28;20035;-74
2024/01/12 01:25:10;;;;;;;12.68;7.60;;;22.60;50.30;;;;;;5091421;28;20437;-74
2024/01/12 01:27:36;;;;;;;10.35;6.93;;;22.80;50.00;;;;;;5055211;28;20044;-74
2024/01/12 01:30:03;;;;;;;15.82;8.88;;;22.80;50.20;;;;;;5091097;28;20042;-75
2024/01/12 01:32:29;;;;;;;14.55;8.00;;;22.70;49.90;;;;;;5089495;28;20062;-75
2024/01/12 01:34:56;;;;;;;10.50;7.25;;;22.70;50.10;;;;;;5071962;28;20057;-74
2024/01/12 01:37:22;;;;;;;17.05;8.10;;;22.60;49.60;;;;;;5089799;28;20076;-74
2024/01/12 01:39:48;;;;;;;17.38;8.75;;;22.40;50.90;;;;;;5091226;28;20114;-75
2024/01/12 01:42:14;;;;;;;13.25;8.05;;;20.50;48.40;;;;;;5090707;28;20478;-75
2024/01/12 01:44:40;;;;;;;15.27;8.55;;;22.50;50.00;;;;;;5094847;28;20064;-74
2024/01/12 01:47:07;;;;;;;14.30;8.80;;;22.60;50.00;;;;;;5095370;28;20078;-74
2024/01/12 01:49:33;;;;;;;11.45;7.60;;;22.20;49.70;;;;;;5095067;28;20042;-74
2024/01/12 01:52:00;;;;;;;16.00;8.07;;;22.40;49.30;;;;;;5094817;28;20028;-74
2024/01/12 01:54:27;;;;;;;17.65;8.60;;;22.60;49.70;;;;;;5094702;28;20139;-72
2024/01/12 01:56:53;;;;;;;14.70;7.75;;;22.40;49.70;;;;;;5093592;28;20051;-74
2024/01/12 01:59:19;;;;;;;11.70;8.23;;;22.40;50.80;;;;;;5094582;28;20222;-75
2024/01/12 02:01:45;;;;;;;14.57;9.00;;;22.70;49.80;;;;;;5092103;28;20071;-72
2024/01/12 02:04:12;;;;;;;16.85;9.60;;;22.40;49.50;;;;;;5075160;28;20068;-75
2024/01/12 02:06:38;;;;;;;11.23;6.90;;;22.40;49.70;;;;;;5092055;28;20039;-74
2024/01/12 02:09:06;;;;;;;10.65;6.63;;;22.40;51.10;;;;;;5092301;28;20044;-74
2024/01/12 02:11:32;;;;;;;13.20;8.50;;;22.40;51.20;;;;;;5092088;28;20040;-75
2024/01/12 02:13:58;;;;;;;13.82;8.63;;;22.40;50.90;;;;;;5092050;28;20069;-74
2024/01/12 02:16:24;;;;;;;13.57;7.82;;;22.40;50.30;;;;;;5091745;28;20051;-74
2024/01/12 02:18:50;;;;;;;14.52;7.82;;;22.50;50.50;;;;;;5041278;28;20043;-74
2024/01/12 02:21:16;;;;;;;15.77;8.93;;;22.30;49.60;;;;;;5074855;28;20510;-73
2024/01/12 02:23:42;;;;;;;13.98;7.53;;;22.40;50.80;;;;;;5112057;28;20104;-74
2024/01/12 02:26:09;;;;;;;11.85;6.60;;;22.30;49.90;;;;;;5112236;28;20034;-74
2024/01/12 02:28:35;;;;;;;14.80;9.23;;;22.40;50.80;;;;;;5112159;28;20042;-74
2024/01/12 02:31:02;;;;;;;11.77;7.45;;;21.90;49.80;;;;;;5111849;28;20028;-74
2024/01/12 02:33:28;;;;;;;14.52;8.75;;;22.50;49.80;;;;;;5114199;28;20036;-74
2024/01/12 02:35:54;;;;;;;12.18;8.20;;;22.70;49.50;;;;;;5114801;28;20035;-74
2024/01/12 02:38:20;;;;;;;13.82;8.27;;;22.30;49.50;;;;;;5114274;28;20510;-75
2024/01/12 02:40:46;;;;;;;16.42;9.00;;;22.50;50.10;;;;;;5114288;28;20047;-74
2024/01/12 02:43:12;;;;;;;16.60;9.18;;;22.30;49.40;;;;;;5114154;27;20474;-74
2024/01/12 02:45:38;;;;;;;16.08;9.70;;;22.60;50.40;;;;;;5114087;28;20039;-74
2024/01/12 02:48:05;;;;;;;19.75;9.77;;;22.20;49.10;;;;;;5114364;27;20074;-74
2024/01/12 02:50:31;;;;;;;19.30;9.27;;;23.70;50.00;;;;;;5112862;28;20031;-72
2024/01/12 02:52:57;;;;;;;16.00;8.23;;;22.00;49.10;;;;;;5095711;28;20042;-75
2024/01/12 02:55:23;;;;;;;16.48;9.40;;;22.50;50.60;;;;;;5112491;28;20477;-74
2024/01/12 02:57:49;;;;;;;15.90;10.23;;;22.40;49.70;;;;;;5112776;28;20545;-74
2024/01/12 03:00:15;;;;;;;15.98;8.75;;;22.70;49.60;;;;;;5113851;28;20071;-74
2024/01/12 03:02:41;;;;;;;17.40;9.95;;;22.40;50.00;;;;;;5114072;28;20023;-74
2024/01/12 03:05:07;;;;;;;16.00;8.98;;;22.30;49.80;;;;;;5114041;28;20086;-75
2024/01/12 03:07:34;;;;;;;16.58;9.57;;;22.40;50.40;;;;;;5112187;28;20363;-75
2024/01/12 03:10:00;;;;;;;14.52;9.13;;;22.30;50.00;;;;;;5113720;28;20428;-74
2024/01/12 03:12:26;;;;;;;19.52;9.60;;;21.10;49.20;;;;;;5113847;28;20550;-75
2024/01/12 03:14:52;;;;;;;15.00;7.75;;;21.80;51.10;;;;;;5112501;28;20031;-75
2024/01/12 03:17:18;;;;;;;18.15;9.65;;;24.00;51.10;;;;;;5114044;28;20072;-75
2024/01/12 03:19:44;;;;;;;14.40;9.43;;;22.80;50.60;;;;;;5112599;28;20032;-75
2024/01/12 03:22:10;;;;;;;19.10;10.32;;;22.20;50.60;;;;;;5113415;28;20084;-75
2024/01/12 03:24:36;;;;;;;15.63;9.13;;;22.30;50.10;;;;;;5113668;28;20020;-74
2024/01/12 03:27:03;;;;;;;10.65;6.80;;;22.20;51.20;;;;;;5112064;28;20031;-75
2024/01/12 03:29:29;;;;;;;16.42;10.13;;;22.20;49.70;;;;;;5113370;28;20110;-74
2024/01/12 03:31:55;;;;;;;17.17;9.95;;;22.20;50.00;;;;;;5113089;28;20039;-75
2024/01/12 03:34:21;;;;;;;17.77;10.70;;;22.30;51.70;;;;;;5113486;28;20466;-74
2024/01/12 03:36:47;;;;;;;19.75;10.75;;;22.20;49.80;;;;;;5113168;28;20126;-74
2024/01/12 03:39:13;;;;;;;18.20;11.40;;;22.20;50.20;;;;;;5113298;28;20039;-75
2024/01/12 03:41:39;;;;;;;17.98;10.98;;;22.30;49.90;;;;;;5113136;28;20406;-75
2024/01/12 03:44:05;;;;;;;16.40;7.88;;;22.20;52.00;;;;;;5113575;28;20038;-75
2024/01/12 03:46:31;;;;;;;11.25;6.82;;;22.70;51.70;;;;;;5111849;28;20043;-75
2024/01/12 03:48:57;;;;;;;20.25;10.48;;;21.30;49.80;;;;;;5113119;28;20024;-74
2024/01/12 03:51:24;;;;;;;19.40;11.43;;;22.30;50.30;;;;;;5113048;28;20106;-74
2024/01/12 03:53:50;;;;;;;18.35;10.77;;;22.20;50.10;;;;;;5112870;28;20023;-74
2024/01/12 03:56:16;;;;;;;17.52;10.40;;;22.40;50.10;;;;;;5113172;28;20447;-74
2024/01/12 03:58:42;;;;;;;15.38;10.00;;;22.40;50.20;;;;;;5112852;28;20061;-75
2024/01/12 04:01:08;;;;;;;17.05;10.10;;;22.20;50.20;;;;;;5112734;28;20030;-74
2024/01/12 04:03:34;;;;;;;11.25;6.28;;;22.20;50.40;;;;;;5112700;28;20479;-74
2024/01/12 04:06:00;;;;;;;17.92;9.60;;;22.20;50.20;;;;;;5111855;28;20055;-74
2024/01/12 04:08:26;;;;;;;20.30;10.90;;;22.20;50.30;;;;;;5112813;28;20031;-74
2024/01/12 04:10:52;;;;;;;19.95;10.35;;;22.40;50.20;;;;;;5112654;28;20103;-77
2024/01/12 04:13:18;;;;;;;14.73;9.40;;;22.00;50.20;;;;;;5112647;28;20398;-74
2024/01/12 04:15:44;;;;;;;16.70;8.70;;;22.60;50.50;;;;;;5112453;28;20487;-74
2024/01/12 04:18:10;;;;;;;14.77;9.57;;;23.10;51.30;;;;;;5111751;28;20071;-75
2024/01/12 04:20:36;;;;;;;17.98;10.50;;;21.20;50.80;;;;;;5112627;28;20445;-73
2024/01/12 04:23:03;;;;;;;24.02;10.40;;;22.10;52.80;;;;;;5112300;28;20108;-74
2024/01/12 04:25:29;;;;;;;17.80;10.07;;;22.10;51.70;;;;;;5112453;28;20130;-76
2024/01/12 04:27:55;;;;;;;22.40;10.90;;;22.10;51.80;;;;;;5111144;28;20098;-75
2024/01/12 04:30:21;;;;;;;21.08;10.57;;;22.40;52.10;;;;;;5112510;28;20027;-75
2024/01/12 04:32:47;;;;;;;19.95;10.30;;;22.10;52.40;;;;;;5112320;28;20114;-75
2024/01/12 04:35:13;;;;;;;20.67;10.98;;;22.20;52.90;;;;;;5112386;28;20543;-77
2024/01/12 04:37:39;;;;;;;17.17;8.85;;;21.20;51.90;;;;;;5112036;28;20451;-74
2024/01/12 04:40:07;;;;;;;19.35;11.15;;;22.30;52.70;;;;;;5112266;28;20468;-79
2024/01/12 04:42:33;;;;;;;23.40;11.32;;;21.80;52.00;;;;;;5111853;28;20031;-75
2024/01/12 04:44:59;;;;;;;18.90;11.77;;;22.70;52.80;;;;;;5088874;28;20504;-74
2024/01/12 04:47:25;;;;;;;19.92;9.63;;;22.10;52.10;;;;;;5076434;28;20045;-82
2024/01/12 04:49:51;;;;;;;7.20;5.80;;;22.30;52.00;;;;;;5068965;28;20079;-77
2024/01/12 04:52:17;;;;;;;10.13;5.97;;;22.30;42.90;;;;;;5052315;28;20071;-79
2024/01/12 04:54:43;;;;;;;8.35;5.78;;;21.00;37.90;;;;;;5035602;28;20043;-78
2024/01/12 04:57:09;;;;;;;8.30;6.68;;;22.10;40.50;;;;;;5052136;28;20044;-79
2024/01/12 04:59:36;;;;;;;36.10;12.82;;;22.00;41.50;;;;;;5052089;28;20424;-77
2024/01/12 05:02:02;;;;;;;67.15;21.67;;;22.40;46.10;;;;;;5069003;28;20187;-79
2024/01/12 05:04:28;;;;;;;155.35;44.35;;;23.20;46.40;;;;;;5068530;28;20369;-78
2024/01/12 05:06:54;;;;;;;98.95;32.72;;;22.30;47.30;;;;;;5069048;28;20114;-78
2024/01/12 05:09:20;;;;;;;45.65;14.65;;;23.10;46.40;;;;;;5068621;28;20079;-79
2024/01/12 05:11:46;;;;;;;42.55;14.77;;;22.90;40.10;;;;;;5068862;28;20028;-79
2024/01/12 05:14:12;;;;;;;30.85;14.65;;;23.60;41.90;;;;;;5069944;28;20520;-75
2024/01/12 05:16:38;;;;;;;49.90;15.48;;;21.50;42.40;;;;;;5068044;28;20488;-75
2024/01/12 05:19:04;;;;;;;47.67;15.73;;;22.80;45.80;;;;;;5068681;28;20040;-74
2024/01/12 05:21:30;;;;;;;23.80;10.25;;;23.40;46.30;;;;;;5071392;28;20194;-73
2024/01/12 05:23:56;;;;;;;22.63;10.73;;;23.00;45.10;;;;;;5089838;28;20492;-76
2024/01/12 05:26:23;;;;;;;31.50;11.05;;;23.90;43.20;;;;;;5091253;28;20118;-77
2024/01/12 05:28:49;;;;;;;19.70;7.85;;;23.20;39.40;;;;;;5091342;28;20028;-76
2024/01/12 05:31:15;;;;;;;17.52;7.85;;;23.20;44.00;;;;;;5089704;28;20036;-78
2024/01/12 05:33:41;;;;;;;19.15;8.05;;;23.20;39.00;;;;;;5089876;28;20364;-78
2024/01/12 05:36:07;;;;;;;15.55;7.55;;;23.30;39.10;;;;;;5090868;28;20055;-78
2024/01/12 05:38:35;;;;;;;15.38;7.40;;;23.00;37.90;;;;;;5071871;28;20059;-77
2024/01/12 05:41:01;;;;;;;16.40;8.43;;;23.30;47.40;;;;;;5091221;28;20044;-80
2024/01/12 05:43:27;;;;;;;12.25;6.68;;;25.20;43.00;;;;;;5090970;28;20113;-79
2024/01/12 05:45:53;;;;;;;13.27;6.20;;;22.60;38.20;;;;;;5091043;28;20110;-79
2024/01/12 05:48:19;;;;;;;15.00;7.05;;;23.30;38.80;;;;;;5090853;28;20093;-77
2024/01/12 05:50:45;;;;;;;11.02;5.45;;;22.50;36.00;;;;;;5089720;28;20024;-78
2024/01/12 05:53:11;;;;;;;8.88;5.47;;;23.30;40.50;;;;;;5090710;28;20036;-75
2024/01/12 05:55:37;;;;;;;9.00;4.10;;;23.20;35.10;;;;;;5090929;28;20361;-78
2024/01/12 05:58:04;;;;;;;6.50;3.70;;;23.30;38.20;;;;;;5091038;28;20036;-78
2024/01/12 06:00:30;;;;;;;5.70;3.60;;;23.30;38.10;;;;;;5090986;28;20032;-78
2024/01/12 06:02:56;;;;;;;11.75;4.47;;;23.40;39.10;;;;;;5091094;28;20020;-76
2024/01/12 06:05:22;;;;;;;65.07;18.55;;;23.40;36.70;;;;;;5089357;28;20130;-75
2024/01/12 06:07:48;;;;;;;8.48;3.40;;;23.40;35.30;;;;;;5091175;28;20038;-76
2024/01/12 06:10:14;;;;;;;1.30;0.93;;;23.20;40.20;;;;;;5110941;28;20114;-75
2024/01/12 06:12:40;;;;;;;1.05;1.00;;;23.40;47.30;;;;;;5111413;28;20036;-76
2024/01/12 06:15:07;;;;;;;8.13;4.05;;;23.70;50.60;;;;;;5111037;28;20475;-80
2024/01/12 06:17:33;;;;;;;5.78;3.53;;;23.90;41.50;;;;;;5111182;28;20383;-77
2024/01/12 06:19:59;;;;;;;7.55;3.90;;;23.80;37.10;;;;;;5111313;28;20448;-78
2024/01/12 06:22:25;;;;;;;5.68;4.18;;;23.70;38.50;;;;;;5111061;28;20046;-79
2024/01/12 06:24:51;;;;;;;4.85;4.15;;;23.70;33.70;;;;;;5110801;28;20043;-77
2024/01/12 06:27:17;;;;;;;5.50;3.75;;;23.50;31.60;;;;;;5110711;28;20035;-75
2024/01/12 06:29:43;;;;;;;4.32;3.40;;;21.90;31.10;;;;;;5112970;28;20032;-75
2024/01/12 06:32:09;;;;;;;5.50;3.78;;;23.50;31.10;;;;;;5114539;28;20045;-74
2024/01/12 06:34:39;;;;;;;4.75;3.22;;;23.40;30.50;;;;;;5114269;28;20080;-76
2024/01/12 06:37:05;;;;;;;6.13;3.53;;;23.40;30.10;;;;;;5114551;28;20040;-76
2024/01/12 06:39:31;;;;;;;4.57;3.05;;;23.30;29.70;;;;;;5114506;28;20116;-77
2024/01/12 06:41:58;;;;;;;5.93;3.75;;;23.30;29.20;;;;;;5114177;28;20368;-73
2024/01/12 06:44:27;;;;;;;5.63;3.40;;;23.20;28.40;;;;;;5114177;28;20067;-76
2024/01/12 06:46:53;;;;;;;4.43;3.22;;;23.20;29.40;;;;;;5110867;28;20023;-75
2024/01/12 06:49:19;;;;;;;3.97;2.90;;;23.10;30.30;;;;;;5114047;28;20515;-78
2024/01/12 06:51:46;;;;;;;2.92;2.60;;;23.30;30.70;;;;;;5110129;28;20507;-73
2024/01/12 06:54:12;;;;;;;4.03;2.75;;;23.20;30.10;;;;;;5105123;28;20119;-72
2024/01/12 06:56:39;;;;;;;3.42;2.80;;;23.00;31.80;;;;;;5103345;28;20111;-71
2024/01/12 06:59:05;;;;;;;1.75;1.60;;;23.00;31.10;;;;;;5102004;28;20387;-71
2024/01/12 07:01:32;;;;;;;2.03;1.58;;;23.10;41.10;;;;;;5091671;28;20040;-69
2024/01/12 07:03:58;;;;;;;2.42;2.22;;;23.20;45.70;;;;;;5103476;28;20027;-72
2024/01/12 07:06:24;;;;;;;3.13;1.98;;;23.00;44.60;;;;;;5104042;28;20039;-71
2024/01/12 07:08:50;;;;;;;4.07;2.38;;;23.70;45.30;;;;;;5101485;28;20036;-71
2024/01/12 07:11:16;;;;;;;4.93;2.00;;;23.40;44.00;;;;;;5102680;28;20039;-71
2024/01/12 07:13:42;;;;;;;2.92;2.05;;;25.60;45.30;;;;;;5102185;28;20077;-71
2024/01/12 07:16:09;;;;;;;4.70;1.90;;;23.20;44.10;;;;;;5104964;27;20379;-75
2024/01/12 07:18:35;;;;;;;3.40;1.92;;;23.20;44.80;;;;;;5101637;28;20054;-74
2024/01/12 07:21:03;;;;;;;3.88;1.70;;;23.50;45.60;;;;;;5104192;28;20466;-75
2024/01/12 07:23:33;;;;;;;2.80;2.05;;;23.10;44.50;;;;;;5103823;28;20036;-75
2024/01/12 07:26:00;;;;;;;5.85;1.92;;;23.20;43.90;;;;;;5104044;28;20388;-73
2024/01/12 07:28:26;;;;;;;3.63;2.40;;;23.00;44.40;;;;;;5106089;28;20107;-74
2024/01/12 07:30:54;;;;;;;4.70;1.90;;;23.20;44.30;;;;;;5098597;28;20016;-73
2024/01/12 07:33:21;;;;;;;3.40;1.95;;;23.50;44.60;;;;;;5093287;28;20040;-74
2024/01/12 07:35:47;;;;;;;2.00;1.35;;;23.20;43.50;;;;;;5093135;28;20039;-72
2024/01/12 07:38:13;;;;;;;2.70;1.52;;;23.10;43.10;;;;;;5095376;28;20039;-73
2024/01/12 07:40:39;;;;;;;8.40;1.48;;;23.20;43.40;;;;;;5097125;28;20025;-76
2024/01/12 07:43:05;;;;;;;2.80;1.70;;;23.00;43.10;;;;;;5092896;28;20036;-74
2024/01/12 07:45:31;;;;;;;3.38;1.75;;;23.10;42.90;;;;;;5093036;28;20082;-76
2024/01/12 07:47:58;;;;;;;2.85;1.83;;;23.00;42.50;;;;;;5091397;28;20024;-75
2024/01/12 07:50:24;;;;;;;2.08;1.67;;;23.10;42.40;;;;;;5092960;28;20110;-75
2024/01/12 07:52:50;;;;;;;1.50;1.40;;;23.10;41.90;;;;;;5106763;28;20039;-76
2024/01/12 07:55:16;;;;;;;3.35;1.73;;;23.10;41.30;;;;;;5109605;28;20035;-75
2024/01/12 07:57:42;;;;;;;4.32;0.90;;;23.10;39.90;;;;;;5092658;28;20036;-74
2024/01/12 08:00:08;;;;;;;1.27;1.05;;;23.00;40.00;;;;;;5095891;28;20035;-72
2024/01/12 08:02:40;;;;;;;2.28;1.00;;;23.10;40.30;;;;;;5092493;28;20077;-76
2024/01/12 08:05:07;;;;;;;2.53;1.30;;;23.00;40.80;;;;;;5092245;28;20058;-83
2024/01/12 08:07:33;;;;;;;1.20;1.00;;;22.90;41.40;;;;;;5092020;28;20040;-76
2024/01/12 08:09:59;;;;;;;1.50;1.15;;;22.90;42.00;;;;;;5092513;28;20032;-78
2024/01/12 08:12:25;;;;;;;3.22;1.08;;;23.00;42.50;;;;;;5092388;28;20487;-77
2024/01/12 08:14:51;;;;;;;1.45;0.90;;;22.90;43.30;;;;;;5098116;28;20213;-77
2024/01/12 08:17:17;;;;;;;1.92;0.90;;;22.80;43.20;;;;;;5112358;28;20447;-79
2024/01/12 08:19:43;;;;;;;4.75;2.10;;;22.90;42.60;;;;;;5111259;28;20390;-77
2024/01/12 08:22:09;;;;;;;2.15;1.40;;;23.10;42.60;;;;;;5112560;28;20046;-76
2024/01/12 08:24:36;;;;;;;3.92;1.75;;;23.30;41.50;;;;;;5112356;28;20023;-77
2024/01/12 08:27:03;;;;;;;3.35;1.98;;;23.20;40.20;;;;;;5110574;28;20039;-76
2024/01/12 08:29:29;;;;;;;2.47;1.00;;;23.50;43.50;;;;;;5112215;28;20122;-74
2024/01/12 08:31:55;;;;;;;1.80;0.88;;;23.60;45.50;;;;;;5112465;28;20031;-77
2024/01/12 08:34:22;;;;;;;3.70;0.85;;;23.40;42.90;;;;;;5111120;28;20065;-78
2024/01/12 08:36:48;;;;;;;4.32;1.23;;;23.20;43.10;;;;;;5111896;28;20114;-75
2024/01/12 08:39:14;;;;;;;1.20;1.10;;;23.60;44.20;;;;;;5111852;28;20084;-79
2024/01/12 08:41:40;;;;;;;1.88;1.27;;;23.20;43.80;;;;;;5112311;28;20114;-76
2024/01/12 08:44:07;;;;;;;4.75;1.00;;;23.20;44.00;;;;;;5112353;28;20371;-77
2024/01/12 08:46:33;;;;;;;5.07;1.25;;;23.00;46.90;;;;;;5110598;28;20040;-75
2024/01/12 08:49:00;;;;;;;2.35;1.10;;;23.00;46.10;;;;;;5068488;28;20124;-79
2024/01/12 08:51:26;;;;;;;2.05;1.42;;;22.90;45.90;;;;;;5062107;28;20083;-73
2024/01/12 08:53:52;;;;;;;6.97;1.30;;;22.80;45.90;;;;;;5058387;28;20495;-74
2024/01/12 08:56:18;;;;;;;1.60;1.38;;;22.90;46.20;;;;;;5015697;28;20512;-72
2024/01/12 08:58:44;;;;;;;3.60;1.38;;;22.80;46.60;;;;;;5048572;28;20582;-77
2024/01/12 09:01:11;;;;;;;6.40;2.00;;;23.10;49.50;;;;;;5038438;28;20108;-74
2024/01/12 09:03:37;;;;;;;2.05;1.42;;;22.60;50.60;;;;;;5060785;28;20045;-75
2024/01/12 09:06:04;;;;;;;2.22;1.45;;;22.70;50.20;;;;;;5068643;28;20028;-75
2024/01/12 09:08:30;;;;;;;2.55;1.75;;;22.90;48.90;;;;;;5068376;28;20163;-77
2024/01/12 09:10:56;;;;;;;5.35;2.08;;;22.50;48.20;;;;;;5068497;28;20074;-75
2024/01/12 09:13:22;;;;;;;2.97;1.80;;;22.60;48.00;;;;;;5062037;28;20497;-76
2024/01/12 09:15:48;;;;;;;2.50;1.70;;;22.60;49.50;;;;;;5061894;28;20045;-77
2024/01/12 09:18:15;;;;;;;3.10;1.88;;;22.70;49.10;;;;;;5068152;28;20418;-76
2024/01/12 09:20:41;;;;;;;2.80;1.83;;;22.80;49.10;;;;;;5098818;28;20398;-73
2024/01/12 09:23:07;;;;;;;4.53;1.30;;;22.20;48.80;;;;;;5093114;28;20032;-72
2024/01/12 09:25:33;;;;;;;2.42;1.48;;;22.60;49.30;;;;;;5097888;28;20115;-72
2024/01/12 09:27:59;;;;;;;2.88;1.92;;;22.40;48.80;;;;;;5097263;28;20063;-80
2024/01/12 09:30:25;;;;;;;1.55;1.45;;;22.60;50.00;;;;;;5101116;28;20108;-78
2024/01/12 09:32:51;;;;;;;4.07;1.75;;;23.40;53.70;;;;;;5110479;28;20039;-80
2024/01/12 09:35:17;;;;;;;3.78;1.88;;;23.40;52.70;;;;;;5111798;28;20110;-73
2024/01/12 09:37:43;;;;;;;6.20;2.35;;;23.10;52.70;;;;;;5102986;28;20037;-78
2024/01/12 09:40:10;;;;;;;2.97;1.27;;;23.80;55.30;;;;;;5091096;28;20036;-78
2024/01/12 09:42:42;;;;;;;3.58;1.48;;;23.90;56.70;;;;;;5091083;28;20028;-77
2024/01/12 09:45:12;;;;;;;3.60;1.38;;;24.10;60.50;;;;;;5088123;28;20074;-78
2024/01/12 09:47:38;;;;;;;2.67;1.63;;;23.30;53.00;;;;;;5087967;28;20113;-77
2024/01/12 09:50:05;;;;;;;2.03;1.50;;;24.00;53.80;;;;;;5104080;28;20043;-74
2024/01/12 09:52:31;;;;;;;2.20;1.70;;;23.90;50.60;;;;;;5094730;28;20032;-82
2024/01/12 09:54:57;;;;;;;4.45;2.30;;;23.70;50.00;;;;;;5108907;28;20027;-77
2024/01/12 09:57:25;;;;;;;3.53;2.40;;;22.80;49.20;;;;;;5108627;28;20067;-76
2024/01/12 09:59:51;;;;;;;2.90;2.10;;;23.40;49.10;;;;;;5108633;28;20514;-74
2024/01/12 10:02:18;;;;;;;2.03;1.65;;;23.70;50.70;;;;;;5101712;28;20434;-74
2024/01/12 10:04:45;;;;;;;2.10;1.45;;;23.30;50.30;;;;;;5075880;28;20036;-72
2024/01/12 10:07:11;;;;;;;4.28;1.90;;;23.30;49.90;;;;;;5090362;28;20127;-73
2024/01/12 10:09:37;;;;;;;1.83;1.73;;;23.20;49.70;;;;;;5091733;28;20099;-71
2024/01/12 10:12:04;;;;;;;2.30;1.75;;;23.30;49.50;;;;;;5095757;28;20249;-73
2024/01/12 10:14:30;;;;;;;7.22;2.03;;;23.20;49.40;;;;;;5090908;28;20048;-73
2024/01/12 10:16:56;;;;;;;3.78;2.35;;;22.90;48.60;;;;;;5101388;28;20048;-76
2024/01/12 10:19:23;;;;;;;3.05;2.17;;;22.50;49.00;;;;;;5088208;28;20111;-76
2024/01/12 10:21:50;;;;;;;4.47;2.47;;;23.20;49.40;;;;;;5089100;28;20579;-72
2024/01/12 10:24:18;;;;;;;3.25;2.03;;;23.10;49.40;;;;;;5090351;28;20032;-77
2024/01/12 10:26:50;;;;;;;2.05;1.85;;;22.80;49.20;;;;;;5091434;28;20051;-75
2024/01/12 10:29:17;;;;;;;3.70;1.98;;;23.30;50.60;;;;;;5100791;28;20110;-77
2024/01/12 10:31:45;;;;;;;3.65;2.00;;;23.10;53.20;;;;;;5113985;28;20036;-75
2024/01/12 10:34:12;;;;;;;4.20;2.60;;;23.50;54.00;;;;;;5114518;28;20043;-75
2024/01/12 10:36:39;;;;;;;3.55;2.10;;;24.50;54.70;;;;;;5111021;28;20034;-76
2024/01/12 10:39:10;;;;;;;5.72;2.90;;;24.30;54.50;;;;;;5113992;28;20402;-75
2024/01/12 10:41:36;;;;;;;6.70;2.63;;;24.30;53.00;;;;;;5113955;28;20107;-77
2024/01/12 10:44:06;;;;;;;12.15;2.20;;;24.40;52.50;;;;;;5112333;28;20031;-75
2024/01/12 10:46:40;;;;;;;10.88;2.70;;;24.30;45.80;;;;;;5101090;28;20115;-79
2024/01/12 10:49:07;;;;;;;3.72;1.98;;;24.70;53.50;;;;;;5102878;28;20042;-78
2024/01/12 10:51:38;;;;;;;4.30;2.20;;;24.90;42.30;;;;;;5104972;28;20468;-74
2024/01/12 10:54:26;;;;;;;3.33;2.10;;;24.40;48.00;;;;;;5104966;28;20111;-73
2024/01/12 10:56:54;;;;;;;3.13;1.83;;;24.60;49.20;;;;;;5103002;28;20088;-72
2024/01/12 10:59:22;;;;;;;3.05;2.03;;;24.50;51.10;;;;;;5094628;28;20054;-78
2024/01/12 11:01:49;;;;;;;4.13;1.80;;;24.50;50.80;;;;;;5093795;28;20063;-77
2024/01/12 11:04:16;;;;;;;8.43;2.10;;;24.40;50.60;;;;;;5093716;28;20040;-74
2024/01/12 11:06:48;;;;;;;4.20;1.70;;;24.70;51.90;;;;;;5093204;28;20035;-76
2024/01/12 11:09:17;;;;;;;5.78;1.77;;;25.10;51.40;;;;;;5092967;28;20364;-74
2024/01/12 11:11:57;;;;;;;2.97;1.52;;;25.60;48.90;;;;;;5093537;28;20091;-77
2024/01/12 11:14:24;;;;;;;4.25;1.67;;;25.60;40.90;;;;;;5094692;28;20036;-76
2024/01/12 11:16:50;;;;;;;2.03;1.60;;;25.40;47.00;;;;;;5077008;28;20410;-74
2024/01/12 11:19:19;;;;;;;1.83;1.40;;;25.50;47.30;;;;;;5111750;28;20048;-76
2024/01/12 11:21:45;;;;;;;2.90;1.45;;;24.50;46.80;;;;;;5113103;28;20040;-74
2024/01/12 11:24:12;;;;;;;3.10;1.70;;;25.30;45.70;;;;;;5113136;28;20391;-74
2024/01/12 11:26:38;;;;;;;2.67;2.05;;;25.00;45.80;;;;;;5112105;28;20039;-74
2024/01/12 11:29:05;;;;;;;2.13;1.75;;;24.80;47.00;;;;;;5102540;28;20115;-74
2024/01/12 11:31:31;;;;;;;2.63;1.80;;;25.10;45.60;;;;;;5109736;28;20059;-72
2024/01/12 11:34:03;;;;;;;2.95;1.90;;;25.00;47.40;;;;;;5112855;28;20440;-75
2024/01/12 11:36:30;;;;;;;2.80;1.83;;;24.90;46.30;;;;;;5112877;28;20035;-72
2024/01/12 11:39:00;;;;;;;2.40;1.33;;;24.90;48.10;;;;;;5111530;28;20054;-74
2024/01/12 11:41:30;;;;;;;1.92;1.30;;;25.20;47.10;;;;;;5113156;28;20602;-75
2024/01/12 11:43:58;;;;;;;3.25;1.27;;;24.50;47.20;;;;;;5113305;28;20551;-74
2024/01/12 11:46:26;;;;;;;3.28;1.40;;;23.70;48.00;;;;;;5113112;28;20035;-72
2024/01/12 11:48:52;;;;;;;2.20;1.40;;;24.50;47.20;;;;;;5112969;28;20067;-73
2024/01/12 11:51:29;;;;;;;2.47;1.75;;;25.60;48.50;;;;;;5113151;28;20078;-75
2024/01/12 11:53:58;;;;;;;2.30;1.30;;;23.70;47.40;;;;;;5112958;28;20486;-73
2024/01/12 11:56:25;;;;;;;3.35;1.48;;;24.30;48.10;;;;;;5111080;28;20023;-73
2024/01/12 11:58:51;;;;;;;1.30;1.02;;;24.50;48.50;;;;;;5112666;27;20046;-74
2024/01/12 12:01:22;;;;;;;1.45;1.00;;;24.40;49.20;;;;;;5093519;28;20043;-77
2024/01/12 12:03:49;;;;;;;2.00;1.27;;;25.20;48.50;;;;;;5093615;28;20040;-76
2024/01/12 12:06:16;;;;;;;3.33;1.15;;;24.70;49.80;;;;;;5100890;27;20036;-76
2024/01/12 12:08:42;;;;;;;2.90;1.13;;;25.00;46.50;;;;;;5092548;28;20036;-76
2024/01/12 12:11:09;;;;;;;1.63;0.80;;;25.10;45.30;;;;;;5090893;28;20074;-78
2024/01/12 12:13:36;;;;;;;1.58;1.05;;;25.30;44.40;;;;;;5092229;28;20070;-76
2024/01/12 12:16:03;;;;;;;1.35;1.02;;;25.60;50.20;;;;;;5107620;28;20040;-77
2024/01/12 12:18:33;;;;;;;0.93;0.93;;;25.80;49.80;;;;;;5112272;28;20082;-79
2024/01/12 12:21:02;;;;;;;1.48;1.35;;;25.70;49.80;;;;;;5108281;28;20032;-77
2024/01/12 12:23:30;;;;;;;2.90;1.40;;;25.80;47.70;;;;;;5100323;28;20056;-75
2024/01/12 12:26:12;;;;;;;3.63;1.10;;;26.10;48.70;;;;;;5092063;28;20092;-74
2024/01/12 12:28:41;;;;;;;4.50;1.33;;;25.00;43.60;;;;;;5047482;28;20127;-77
2024/01/12 12:31:08;;;;;;;1.30;1.20;;;25.80;44.30;;;;;;5032179;28;20041;-75
2024/01/12 12:33:34;;;;;;;1.77;0.77;;;26.10;42.20;;;;;;5049282;28;20048;-78
2024/01/12 12:36:06;;;;;;;1.98;1.48;;;25.60;41.40;;;;;;5049302;28;20477;-75
2024/01/12 12:38:32;;;;;;;4.22;2.60;;;25.60;42.70;;;;;;5050640;28;20086;-73